createdAt,value
2022-10-19T00:01:28.776Z,4.05
2022-10-19T00:03:55.897Z,4.10
2022-10-19T00:06:26.856Z,4.80
2022-10-19T00:08:55.871Z,4.13
2022-10-19T00:11:23.767Z,3.90
2022-10-19T00:13:50.563Z,4.22
2022-10-19T00:16:17.375Z,4.97
2022-10-19T00:18:44.902Z,4.68
2022-10-19T00:21:14.819Z,4.38
2022-10-19T00:23:41.593Z,3.88
2022-10-19T00:26:08.489Z,3.53
2022-10-19T00:28:35.004Z,3.03
2022-10-19T00:31:10.901Z,3.80
2022-10-19T00:33:37.343Z,3.90
2022-10-19T00:36:04.794Z,4.22
2022-10-19T00:38:31.346Z,3.90
2022-10-19T00:40:57.749Z,4.47
2022-10-19T00:43:26.720Z,4.53
2022-10-19T00:45:53.207Z,4.80
2022-10-19T00:48:30.498Z,5.28
2022-10-19T00:50:59.575Z,6.45
2022-10-19T00:53:28.671Z,5.38
2022-10-19T00:55:56.515Z,5.47
2022-10-19T00:58:22.938Z,5.00
2022-10-19T01:00:49.416Z,5.93
2022-10-19T01:03:15.840Z,5.70
2022-10-19T01:05:42.670Z,5.45
2022-10-19T01:08:10.003Z,5.80
2022-10-19T01:11:08.474Z,5.35
2022-10-19T01:14:03.119Z,5.90
2022-10-19T01:16:55.712Z,5.15
2022-10-19T01:19:48.078Z,5.53
2022-10-19T01:22:52.217Z,5.72
2022-10-19T01:25:24.561Z,6.05
2022-10-19T01:28:11.088Z,5.68
2022-10-19T01:30:56.074Z,5.43
2022-10-19T01:36:44.046Z,5.70
2022-10-19T01:39:13.339Z,6.63
2022-10-19T01:41:55.770Z,6.15
2022-10-19T01:46:57.171Z,5.97
2022-10-19T01:49:32.675Z,4.78
2022-10-19T01:52:05.524Z,6.25
2022-10-19T01:54:38.489Z,6.00
2022-10-19T01:57:07.486Z,6.47
2022-10-19T01:59:36.242Z,6.57
2022-10-19T02:02:04.727Z,7.05
2022-10-19T02:04:33.390Z,6.78
2022-10-19T02:07:02.464Z,7.32
2022-10-19T02:09:28.890Z,6.80
2022-10-19T02:11:59.032Z,7.25
2022-10-19T02:14:31.110Z,7.40
2022-10-19T02:17:02.409Z,6.07
2022-10-19T02:19:28.770Z,6.95
2022-10-19T02:21:56.475Z,7.05
2022-10-19T02:24:22.850Z,6.43
2022-10-19T02:26:50.135Z,6.57
2022-10-19T02:29:16.990Z,6.75
2022-10-19T02:31:43.724Z,6.97
2022-10-19T02:34:10.648Z,6.20
2022-10-19T02:36:37.042Z,5.90
2022-10-19T02:39:03.931Z,6.50
2022-10-19T02:41:46.924Z,5.80
2022-10-19T02:44:23.923Z,5.68
2022-10-19T02:47:16.157Z,5.30
2022-10-19T02:49:44.536Z,4.95
2022-10-19T02:52:13.359Z,5.07
2022-10-19T02:54:42.298Z,5.45
2022-10-19T02:57:17.711Z,5.20
2022-10-19T02:59:44.313Z,6.70
2022-10-19T03:02:10.674Z,4.75
2022-10-19T03:04:37.046Z,4.78
2022-10-19T03:07:03.633Z,4.47
2022-10-19T03:09:30.074Z,4.85
2022-10-19T03:11:56.437Z,5.40
2022-10-19T03:14:22.787Z,5.18
2022-10-19T03:16:49.191Z,5.25
2022-10-19T03:19:15.556Z,5.15
2022-10-19T03:21:41.891Z,4.60
2022-10-19T03:24:08.374Z,4.20
2022-10-19T03:26:34.739Z,5.35
2022-10-19T03:29:01.099Z,5.28
2022-10-19T03:31:27.515Z,4.50
2022-10-19T03:33:53.853Z,4.60
2022-10-19T03:36:26.485Z,4.50
2022-10-19T03:38:55.148Z,4.10
2022-10-19T03:41:22.869Z,3.90
2022-10-19T03:43:49.557Z,4.80
2022-10-19T03:46:16.308Z,4.63
2022-10-19T03:48:43.275Z,5.68
2022-10-19T03:51:12.962Z,5.43
2022-10-19T03:53:40.534Z,5.35
2022-10-19T03:56:10.856Z,4.85
2022-10-19T03:58:39.289Z,4.68
2022-10-19T04:01:14.525Z,4.63
2022-10-19T04:03:41.153Z,4.50
2022-10-19T04:06:11.270Z,4.53
2022-10-19T04:08:37.591Z,3.72
2022-10-19T04:11:06.477Z,4.60
2022-10-19T04:13:34.620Z,3.63
2022-10-19T04:16:01.159Z,5.18
2022-10-19T04:18:27.607Z,4.60
2022-10-19T04:21:03.300Z,3.70
2022-10-19T04:23:32.814Z,4.63
2022-10-19T04:26:05.884Z,4.30
2022-10-19T04:28:33.467Z,4.45
2022-10-19T04:31:04.195Z,4.53
2022-10-19T04:33:30.733Z,4.60
2022-10-19T04:36:04.446Z,4.82
2022-10-19T04:38:31.622Z,4.28
2022-10-19T04:41:03.167Z,4.20
2022-10-19T04:43:29.700Z,4.43
2022-10-19T04:45:56.143Z,4.00
2022-10-19T04:48:22.587Z,4.35
2022-10-19T04:50:48.955Z,5.35
2022-10-19T04:53:15.288Z,5.63
2022-10-19T04:55:42.307Z,7.60
2022-10-19T04:58:09.147Z,5.03
2022-10-19T05:00:37.957Z,4.65
2022-10-19T05:03:04.751Z,5.15
2022-10-19T05:05:32.315Z,5.53
2022-10-19T05:07:58.789Z,4.43
2022-10-19T05:10:25.241Z,4.25
2022-10-19T05:12:51.583Z,3.58
2022-10-19T05:15:18.108Z,4.32
2022-10-19T05:17:44.610Z,4.55
2022-10-19T05:20:11.452Z,4.30
2022-10-19T05:22:38.764Z,5.00
2022-10-19T05:25:06.645Z,4.78
2022-10-19T05:27:33.896Z,5.15
2022-10-19T05:30:00.516Z,5.07
2022-10-19T05:32:28.303Z,3.85
2022-10-19T05:34:54.720Z,4.63
2022-10-19T05:37:21.647Z,4.28
2022-10-19T05:39:48.131Z,5.57
2022-10-19T05:42:14.502Z,4.05
2022-10-19T05:44:41.047Z,3.55
2022-10-19T05:47:07.475Z,4.60
2022-10-19T05:49:33.988Z,3.90
2022-10-19T05:52:00.696Z,3.55
2022-10-19T05:54:28.524Z,3.80
2022-10-19T05:56:55.175Z,3.08
2022-10-19T05:59:22.332Z,3.95
2022-10-19T06:01:48.952Z,3.60
2022-10-19T06:06:47.111Z,3.17
2022-10-19T06:09:13.495Z,3.47
2022-10-19T06:11:41.368Z,3.13
2022-10-19T06:14:11.808Z,2.92
2022-10-19T06:16:38.584Z,3.40
2022-10-19T06:19:05.390Z,3.10
2022-10-19T06:21:32.872Z,3.05
2022-10-19T06:24:02.832Z,2.83
2022-10-19T06:26:31.675Z,3.20
2022-10-19T06:29:00.441Z,3.17
2022-10-19T06:31:28.230Z,5.60
2022-10-19T06:33:55.684Z,3.90
2022-10-19T06:36:24.789Z,3.17
2022-10-19T06:38:51.181Z,3.28
2022-10-19T06:41:17.582Z,3.30
2022-10-19T06:43:44.360Z,3.47
2022-10-19T06:46:15.502Z,3.58
2022-10-19T06:48:41.882Z,3.72
2022-10-19T06:51:08.544Z,3.65
2022-10-19T06:53:36.489Z,3.67
2022-10-19T06:56:05.787Z,3.83
2022-10-19T06:58:36.399Z,3.03
2022-10-19T07:01:02.926Z,3.10
2022-10-19T07:03:30.027Z,3.75
2022-10-19T07:05:59.239Z,3.55
2022-10-19T07:08:27.436Z,3.42
2022-10-19T07:10:56.603Z,3.08
2022-10-19T07:13:23.328Z,3.00
2022-10-19T07:15:50.201Z,3.30
2022-10-19T07:18:16.635Z,3.00
2022-10-19T07:20:42.969Z,3.35
2022-10-19T07:23:09.386Z,3.78
2022-10-19T07:25:36.371Z,2.97
2022-10-19T07:28:03.027Z,3.33
2022-10-19T07:30:29.411Z,3.28
2022-10-19T07:32:55.722Z,3.03
2022-10-19T07:35:22.134Z,2.75
2022-10-19T07:37:48.468Z,3.40
2022-10-19T07:40:14.915Z,3.53
2022-10-19T07:42:41.251Z,3.20
2022-10-19T07:45:07.847Z,3.10
2022-10-19T07:47:34.550Z,3.38
2022-10-19T07:50:01.118Z,2.92
2022-10-19T07:52:27.526Z,3.40
2022-10-19T07:54:55.289Z,3.97
2022-10-19T07:57:22.467Z,4.25
2022-10-19T07:59:48.812Z,3.40
2022-10-19T08:02:16.953Z,3.20
2022-10-19T08:04:59.618Z,2.92
2022-10-19T08:07:28.307Z,3.70
2022-10-19T08:09:54.799Z,4.22
2022-10-19T08:12:21.467Z,4.65
2022-10-19T08:14:48.251Z,4.25
2022-10-19T08:17:17.343Z,3.90
2022-10-19T08:19:44.994Z,3.97
2022-10-19T08:22:11.753Z,3.47
2022-10-19T08:24:38.534Z,3.65
2022-10-19T08:27:05.118Z,4.40
2022-10-19T08:29:32.000Z,4.57
2022-10-19T08:31:58.609Z,4.70
2022-10-19T08:34:25.382Z,4.38
2022-10-19T08:36:51.775Z,4.65
2022-10-19T08:39:18.243Z,4.60
2022-10-19T08:42:19.792Z,5.28
2022-10-19T08:45:18.740Z,4.32
2022-10-19T08:47:48.079Z,4.50
2022-10-19T08:50:25.076Z,4.47
2022-10-19T08:53:22.411Z,5.22
2022-10-19T08:56:26.927Z,3.80
2022-10-19T08:59:18.310Z,4.70
2022-10-19T09:01:58.153Z,5.05
2022-10-19T09:04:30.704Z,5.43
2022-10-19T09:07:22.107Z,5.10
2022-10-19T09:09:55.999Z,4.70
2022-10-19T09:12:33.504Z,4.20
2022-10-19T09:15:13.389Z,3.90
2022-10-19T09:17:39.804Z,4.07
2022-10-19T09:20:29.340Z,4.22
2022-10-19T09:23:18.941Z,4.32
2022-10-19T09:25:48.291Z,4.57
2022-10-19T09:28:23.265Z,5.10
2022-10-19T09:30:56.525Z,5.57
2022-10-19T09:33:38.874Z,4.00
2022-10-19T09:38:33.361Z,5.25
2022-10-19T09:41:14.739Z,4.88
2022-10-19T09:43:50.679Z,4.88
2022-10-19T09:46:41.714Z,5.65
2022-10-19T09:49:08.108Z,5.82
2022-10-19T09:51:52.257Z,5.78
2022-10-19T09:54:37.426Z,6.18
2022-10-19T09:57:05.249Z,6.45
2022-10-19T09:59:36.607Z,7.30
2022-10-19T10:02:05.979Z,6.80
2022-10-19T10:04:32.490Z,7.88
2022-10-19T10:06:59.196Z,8.48
2022-10-19T10:09:28.458Z,8.18
2022-10-19T10:11:58.287Z,8.93
2022-10-19T10:14:35.336Z,8.57
2022-10-19T10:17:25.616Z,9.13
2022-10-19T10:20:16.741Z,8.15
2022-10-19T10:22:52.978Z,8.52
2022-10-19T10:25:19.813Z,9.30
2022-10-19T10:27:59.082Z,9.05
2022-10-19T10:30:28.875Z,8.05
2022-10-19T10:32:58.068Z,8.15
2022-10-19T10:35:34.658Z,6.97
2022-10-19T10:38:25.153Z,7.22
2022-10-19T10:40:54.586Z,6.15
2022-10-19T10:43:29.291Z,6.50
2022-10-19T10:46:14.444Z,5.22
2022-10-19T10:48:53.405Z,5.15
2022-10-19T10:51:27.164Z,6.00
2022-10-19T10:54:08.852Z,6.28
2022-10-19T10:56:35.408Z,5.85
2022-10-19T10:59:15.351Z,5.80
2022-10-19T11:01:57.285Z,5.88
2022-10-19T11:04:31.121Z,5.65
2022-10-19T11:07:04.957Z,5.88
2022-10-19T11:09:38.120Z,5.15
2022-10-19T11:12:16.163Z,5.07
2022-10-19T11:15:00.675Z,5.40
2022-10-19T11:17:31.804Z,4.55
2022-10-19T11:19:58.423Z,4.55
2022-10-19T11:22:58.914Z,3.95
2022-10-19T11:25:54.505Z,4.53
2022-10-19T11:28:53.364Z,4.75
2022-10-19T11:31:29.668Z,6.40
2022-10-19T11:36:47.312Z,4.53
2022-10-19T11:39:56.833Z,5.15
2022-10-19T11:42:44.662Z,4.53
2022-10-19T11:48:14.658Z,4.60
2022-10-19T11:51:16.988Z,4.85
2022-10-19T11:53:48.688Z,5.85
2022-10-19T11:57:11.174Z,4.90
2022-10-19T12:00:03.659Z,4.90
2022-10-19T12:02:54.313Z,4.22
2022-10-19T12:05:33.988Z,4.03
2022-10-19T12:08:02.979Z,4.05
2022-10-19T12:10:40.158Z,4.20
2022-10-19T12:13:12.937Z,4.40
2022-10-19T12:15:55.308Z,4.35
2022-10-19T12:18:39.798Z,4.03
2022-10-19T12:21:23.511Z,4.70
2022-10-19T12:23:51.426Z,4.13
2022-10-19T12:26:20.969Z,4.22
2022-10-19T12:28:55.617Z,4.25
2022-10-19T12:31:24.742Z,4.38
2022-10-19T12:34:01.318Z,4.43
2022-10-19T12:36:52.410Z,4.45
2022-10-19T12:39:21.715Z,4.20
2022-10-19T12:42:12.388Z,4.90
2022-10-19T12:45:16.821Z,5.10
2022-10-19T12:50:47.941Z,4.55
2022-10-19T12:53:31.674Z,4.43
2022-10-19T12:56:04.189Z,4.25
2022-10-19T12:58:46.701Z,4.60
2022-10-19T13:01:44.252Z,5.07
2022-10-19T13:04:16.690Z,4.20
2022-10-19T13:06:46.043Z,4.28
2022-10-19T13:09:39.476Z,4.13
2022-10-19T13:12:19.362Z,3.60
2022-10-19T13:14:58.818Z,3.60
2022-10-19T13:17:34.682Z,3.95
2022-10-19T13:20:13.349Z,3.47
2022-10-19T13:22:48.820Z,4.07
2022-10-19T13:25:41.522Z,3.65
2022-10-19T13:28:07.918Z,3.80
2022-10-19T13:30:43.932Z,3.35
2022-10-19T13:36:12.231Z,4.13
2022-10-19T13:38:44.578Z,3.88
2022-10-19T13:41:28.328Z,4.53
2022-10-19T13:44:20.894Z,4.20
2022-10-19T13:47:05.799Z,3.80
2022-10-19T13:49:56.651Z,4.90
2022-10-19T13:52:38.351Z,4.72
2022-10-19T13:58:00.470Z,4.82
2022-10-19T14:00:32.323Z,4.75
2022-10-19T14:03:10.780Z,4.35
2022-10-19T14:06:04.687Z,5.07
2022-10-19T14:08:52.712Z,4.50
2022-10-19T14:11:25.053Z,3.63
2022-10-19T14:14:10.220Z,3.95
2022-10-19T14:16:49.231Z,3.90
2022-10-19T14:19:26.899Z,4.07
2022-10-19T14:22:01.695Z,4.18
2022-10-19T14:24:34.446Z,4.15
2022-10-19T14:27:06.863Z,3.70
2022-10-19T14:29:49.136Z,3.70
2022-10-19T14:32:16.579Z,4.00
2022-10-19T14:34:45.261Z,3.45
2022-10-19T14:37:21.906Z,3.63
2022-10-19T14:40:04.843Z,4.68
2022-10-19T14:42:45.560Z,3.67
2022-10-19T14:45:22.028Z,3.53
2022-10-19T14:47:59.111Z,3.50
2022-10-19T14:50:32.467Z,3.85
2022-10-19T14:53:23.262Z,3.85
2022-10-19T14:55:53.132Z,3.85
2022-10-19T14:58:22.371Z,3.67
2022-10-19T15:00:51.235Z,3.45
2022-10-19T15:03:28.624Z,3.55
2022-10-19T15:06:00.343Z,3.90
2022-10-19T15:08:34.563Z,3.20
2022-10-19T15:11:01.076Z,3.70
2022-10-19T15:13:33.515Z,3.13
2022-10-19T15:16:00.084Z,3.45
2022-10-19T15:18:48.913Z,3.30
2022-10-19T15:21:20.185Z,3.17
2022-10-19T15:23:49.023Z,3.22
2022-10-19T15:26:19.276Z,2.92
2022-10-19T15:28:46.335Z,2.85
2022-10-19T15:31:19.018Z,2.90
2022-10-19T15:33:52.435Z,3.28
2022-10-19T15:36:20.510Z,2.85
2022-10-19T15:39:11.638Z,3.30
2022-10-19T15:41:48.282Z,3.40
2022-10-19T15:44:40.733Z,2.80
2022-10-19T15:47:16.237Z,3.60
2022-10-19T15:49:42.613Z,2.97
2022-10-19T15:52:26.479Z,3.13
2022-10-19T15:54:55.118Z,3.13
2022-10-19T15:57:36.847Z,2.75
2022-10-19T16:00:21.896Z,2.95
2022-10-19T16:02:48.227Z,3.10
2022-10-19T16:05:14.553Z,3.25
2022-10-19T16:07:42.160Z,3.47
2022-10-19T16:10:16.025Z,3.40
2022-10-19T16:12:42.616Z,4.40
2022-10-19T16:15:13.373Z,3.60
2022-10-19T16:17:40.168Z,4.10
2022-10-19T16:20:06.977Z,4.07
2022-10-19T16:22:33.560Z,4.07
2022-10-19T16:24:59.975Z,4.20
2022-10-19T16:27:26.444Z,4.43
2022-10-19T16:29:52.818Z,4.90
2022-10-19T16:32:19.215Z,3.95
2022-10-19T16:34:46.534Z,4.43
2022-10-19T16:37:12.887Z,4.32
2022-10-19T16:39:39.339Z,4.05
2022-10-19T16:42:05.750Z,3.90
2022-10-19T16:44:32.071Z,4.90
2022-10-19T16:46:58.853Z,4.60
2022-10-19T16:49:26.141Z,4.43
2022-10-19T16:51:54.894Z,4.05
2022-10-19T16:54:24.220Z,4.78
2022-10-19T16:56:50.647Z,4.82
2022-10-19T16:59:18.794Z,4.47
2022-10-19T17:01:46.242Z,5.13
2022-10-19T17:04:13.775Z,4.72
2022-10-19T17:06:40.711Z,6.20
2022-10-19T17:09:37.092Z,6.85
2022-10-19T17:11:53.813Z,4.70
2022-10-19T17:14:20.149Z,4.82
2022-10-19T17:16:46.508Z,4.88
2022-10-19T17:19:13.161Z,5.00
2022-10-19T17:21:39.903Z,4.82
2022-10-19T17:24:08.260Z,5.20
2022-10-19T17:26:37.924Z,4.88
2022-10-19T17:29:05.575Z,4.80
2022-10-19T17:31:32.215Z,5.95
2022-10-19T17:34:00.532Z,5.85
2022-10-19T17:36:29.538Z,6.30
2022-10-19T17:38:57.766Z,5.35
2022-10-19T17:41:25.349Z,5.63
2022-10-19T17:43:52.256Z,5.55
2022-10-19T17:46:22.609Z,6.22
2022-10-19T17:48:49.584Z,6.38
2022-10-19T17:51:29.072Z,6.25
2022-10-19T17:53:58.001Z,5.70
2022-10-19T17:56:25.279Z,6.57
2022-10-19T17:58:52.241Z,5.47
2022-10-19T18:01:21.790Z,6.22
2022-10-19T18:03:48.773Z,6.28
2022-10-19T18:06:18.301Z,5.47
2022-10-19T18:08:47.313Z,6.03
2022-10-19T18:11:25.995Z,6.45
2022-10-19T18:13:55.166Z,7.20
2022-10-19T18:16:24.825Z,5.90
2022-10-19T18:18:53.512Z,6.40
2022-10-19T18:21:22.906Z,6.55
2022-10-19T18:23:49.467Z,6.22
2022-10-19T18:26:20.231Z,6.15
2022-10-19T18:28:46.673Z,6.32
2022-10-19T18:31:16.032Z,7.03
2022-10-19T18:33:42.807Z,6.70
2022-10-19T18:36:10.749Z,6.57
2022-10-19T18:38:37.755Z,6.38
2022-10-19T18:43:43.212Z,6.38
2022-10-19T18:46:10.206Z,6.40
2022-10-19T18:48:37.810Z,6.32
2022-10-19T18:51:06.938Z,6.45
2022-10-19T18:53:33.991Z,6.65
2022-10-19T18:56:02.945Z,7.30
2022-10-19T18:58:30.964Z,7.10
2022-10-19T19:01:04.124Z,7.10
2022-10-19T19:03:30.653Z,6.88
2022-10-19T19:06:05.321Z,8.30
2022-10-19T19:08:31.878Z,9.35
2022-10-19T19:11:19.053Z,8.95
2022-10-19T19:13:51.513Z,7.93
2022-10-19T19:16:18.296Z,8.77
2022-10-19T19:18:44.670Z,8.52
2022-10-19T19:21:20.392Z,7.30
2022-10-19T19:23:47.552Z,7.75
2022-10-19T19:26:14.808Z,8.27
2022-10-19T19:28:43.490Z,7.18
2022-10-19T19:31:15.210Z,7.50
2022-10-19T19:33:43.485Z,8.73
2022-10-19T19:36:11.851Z,10.60
2022-10-19T19:38:38.240Z,11.77
2022-10-19T19:41:06.499Z,9.98
2022-10-19T19:43:35.081Z,14.20
2022-10-19T19:46:06.349Z,10.63
2022-10-19T19:48:36.364Z,9.43
2022-10-19T19:51:02.835Z,9.50
2022-10-19T19:53:29.537Z,8.25
2022-10-19T19:55:55.955Z,8.00
2022-10-19T19:58:22.292Z,8.45
2022-10-19T20:00:48.682Z,7.57
2022-10-19T20:03:15.740Z,8.07
2022-10-19T20:05:42.231Z,7.50
2022-10-19T20:08:09.332Z,7.57
2022-10-19T20:10:41.322Z,7.82
2022-10-19T20:13:07.884Z,7.93
2022-10-19T20:15:36.539Z,7.85
2022-10-19T20:18:03.043Z,7.72
2022-10-19T20:20:29.348Z,8.07
2022-10-19T20:22:55.720Z,8.48
2022-10-19T20:25:22.054Z,8.20
2022-10-19T20:27:48.471Z,10.00
2022-10-19T20:30:14.905Z,12.23
2022-10-19T20:32:41.303Z,9.20
2022-10-19T20:35:07.962Z,7.85
2022-10-19T20:37:34.579Z,7.40
2022-10-19T20:40:08.158Z,7.95
2022-10-19T20:42:35.250Z,8.25
2022-10-19T20:45:01.776Z,8.32
2022-10-19T20:47:28.179Z,8.32
2022-10-19T20:49:54.683Z,8.45
2022-10-19T20:52:21.099Z,8.48
2022-10-19T20:54:48.617Z,13.93
2022-10-19T20:57:14.993Z,9.00
2022-10-19T20:59:41.491Z,7.97
2022-10-19T21:02:10.493Z,7.28
2022-10-19T21:04:36.986Z,7.85
2022-10-19T21:07:04.830Z,7.60
2022-10-19T21:09:31.578Z,6.82
2022-10-19T21:11:58.097Z,7.50
2022-10-19T21:14:28.553Z,8.02
2022-10-19T21:16:59.842Z,8.13
2022-10-19T21:19:29.019Z,6.38
2022-10-19T21:22:03.574Z,7.88
2022-10-19T21:24:33.851Z,8.00
2022-10-19T21:27:02.181Z,7.30
2022-10-19T21:29:28.863Z,7.82
2022-10-19T21:31:55.569Z,7.03
2022-10-19T21:34:26.590Z,7.28
2022-10-19T21:36:55.447Z,6.72
2022-10-19T21:39:23.372Z,6.80
2022-10-19T21:41:50.105Z,8.00
2022-10-19T21:44:18.449Z,7.45
2022-10-19T21:46:47.716Z,7.35
2022-10-19T21:49:14.214Z,6.85
2022-10-19T21:51:44.931Z,7.53
2022-10-19T21:54:14.346Z,6.90
2022-10-19T21:56:41.212Z,7.72
2022-10-19T21:59:07.753Z,6.93
2022-10-19T22:01:38.587Z,6.20
2022-10-19T22:04:12.736Z,7.15
2022-10-19T22:06:39.171Z,7.10
2022-10-19T22:09:07.950Z,6.90
2022-10-19T22:11:34.650Z,7.20
2022-10-19T22:14:02.893Z,7.63
2022-10-19T22:16:30.435Z,8.27
2022-10-19T22:18:59.092Z,8.13
2022-10-19T22:21:28.272Z,8.48
2022-10-19T22:24:03.035Z,7.57
2022-10-19T22:26:32.606Z,7.95
2022-10-19T22:29:00.914Z,7.32
2022-10-19T22:31:29.179Z,6.78
2022-10-19T22:33:55.583Z,6.85
2022-10-19T22:36:22.132Z,7.25
2022-10-19T22:38:48.752Z,7.28
2022-10-19T22:41:15.094Z,7.07
2022-10-19T22:43:41.446Z,7.63
2022-10-19T22:46:07.996Z,6.75
2022-10-19T22:48:34.421Z,7.32
2022-10-19T22:51:00.968Z,7.38
2022-10-19T22:53:27.397Z,6.40
2022-10-19T22:55:53.773Z,8.15
2022-10-19T22:58:20.184Z,7.32
2022-10-19T23:00:56.855Z,7.47
2022-10-19T23:03:23.187Z,6.97
2022-10-19T23:05:49.538Z,7.05
2022-10-19T23:08:15.937Z,7.43
2022-10-19T23:10:42.311Z,7.80
2022-10-19T23:13:09.563Z,7.97
2022-10-19T23:15:37.048Z,7.68
2022-10-19T23:18:05.684Z,6.85
2022-10-19T23:20:32.064Z,7.20
2022-10-19T23:22:58.451Z,7.53
2022-10-19T23:25:24.863Z,7.45
2022-10-19T23:27:51.257Z,7.18
2022-10-19T23:30:17.662Z,6.80
2022-10-19T23:32:44.108Z,7.78
2022-10-19T23:35:10.476Z,7.55
2022-10-19T23:37:37.381Z,7.47
2022-10-19T23:40:04.490Z,7.05
2022-10-19T23:42:30.832Z,7.78
2022-10-19T23:44:57.218Z,7.18
2022-10-19T23:47:23.615Z,7.07
2022-10-19T23:49:50.010Z,7.30
2022-10-19T23:52:16.386Z,6.55
2022-10-19T23:54:42.812Z,7.20
2022-10-19T23:57:09.318Z,7.80
2022-10-19T23:59:35.687Z,8.30
